createdAt,value
2022-07-30T00:00:27.701Z,99599.66
2022-07-30T00:02:56.211Z,99604.81
2022-07-30T00:05:24.325Z,99616.66
2022-07-30T00:07:52.346Z,99609.38
2022-07-30T00:10:23.141Z,99607.81
2022-07-30T00:12:51.521Z,99612.56
2022-07-30T00:15:19.678Z,99611.53
2022-07-30T00:17:49.306Z,99600.38
2022-07-30T00:20:18.491Z,99597.63
2022-07-30T00:22:46.913Z,99609.13
2022-07-30T00:25:15.027Z,99611.31
2022-07-30T00:27:45.449Z,99607.44
2022-07-30T00:30:13.966Z,99598.75
2022-07-30T00:32:42.197Z,99593.97
2022-07-30T00:35:11.481Z,99603.03
2022-07-30T00:37:39.490Z,99600.31
2022-07-30T00:40:09.786Z,99595.84
2022-07-30T00:42:39.338Z,99603.03
2022-07-30T00:45:10.797Z,99600.16
2022-07-30T00:47:39.874Z,99596.81
2022-07-30T00:50:11.159Z,99601.06
2022-07-30T00:52:40.491Z,99592.25
2022-07-30T00:55:11.902Z,99593.66
2022-07-30T00:57:40.276Z,99591.97
2022-07-30T01:00:12.380Z,99587.28
2022-07-30T01:02:40.594Z,99590.19
2022-07-30T01:05:09.846Z,99585.81
2022-07-30T01:07:38.094Z,99583.03
2022-07-30T01:10:08.018Z,99585.91
2022-07-30T01:12:36.217Z,99593.94
2022-07-30T01:15:06.610Z,99594.53
2022-07-30T01:17:37.044Z,99589.00
2022-07-30T01:20:07.065Z,99577.72
2022-07-30T01:22:46.756Z,99583.97
2022-07-30T01:25:22.098Z,99586.00
2022-07-30T01:27:54.662Z,99593.00
2022-07-30T01:30:26.574Z,99589.66
2022-07-30T01:32:57.458Z,99587.44
2022-07-30T01:35:28.888Z,99584.47
2022-07-30T01:37:58.673Z,99593.81
2022-07-30T01:40:29.175Z,99585.31
2022-07-30T01:43:01.347Z,99586.00
2022-07-30T01:45:31.211Z,99578.16
2022-07-30T01:48:06.548Z,99588.88
2022-07-30T01:50:36.632Z,99582.94
2022-07-30T01:53:05.701Z,99583.63
2022-07-30T01:55:38.156Z,99584.09
2022-07-30T01:58:09.981Z,99582.41
2022-07-30T02:00:41.359Z,99582.41
2022-07-30T02:03:09.657Z,99586.84
2022-07-30T02:05:39.176Z,99592.19
2022-07-30T02:08:14.185Z,99591.16
2022-07-30T02:10:45.279Z,99588.28
2022-07-30T02:13:18.987Z,99587.72
2022-07-30T02:15:52.470Z,99585.84
2022-07-30T02:18:24.675Z,99588.44
2022-07-30T02:20:59.893Z,99588.72
2022-07-30T02:23:32.253Z,99590.53
2022-07-30T02:26:01.346Z,99585.41
2022-07-30T02:28:34.359Z,99588.06
2022-07-30T02:31:02.846Z,99583.56
2022-07-30T02:33:50.336Z,99577.59
2022-07-30T02:36:21.118Z,99580.47
2022-07-30T02:38:52.026Z,99573.31
2022-07-30T02:41:23.400Z,99585.25
2022-07-30T02:43:54.766Z,99581.34
2022-07-30T02:46:25.196Z,99581.50
2022-07-30T02:48:56.022Z,99585.25
2022-07-30T02:51:25.813Z,99582.00
2022-07-30T02:53:56.281Z,99576.00
2022-07-30T02:56:25.833Z,99568.44
2022-07-30T02:58:56.872Z,99569.28
2022-07-30T03:01:26.091Z,99574.00
2022-07-30T03:03:55.519Z,99573.72
2022-07-30T03:06:25.648Z,99561.66
2022-07-30T03:08:55.775Z,99553.44
2022-07-30T03:11:25.946Z,99563.91
2022-07-30T03:13:55.369Z,99554.06
2022-07-30T03:16:26.303Z,99551.16
2022-07-30T03:18:56.030Z,99556.31
2022-07-30T03:21:27.494Z,99561.22
2022-07-30T03:23:58.134Z,99560.00
2022-07-30T03:26:28.273Z,99565.34
2022-07-30T03:28:58.692Z,99561.22
2022-07-30T03:31:28.571Z,99568.22
2022-07-30T03:34:06.383Z,99569.66
2022-07-30T03:36:35.026Z,99564.13
2022-07-30T03:39:05.327Z,99570.03
2022-07-30T03:41:34.681Z,99565.31
2022-07-30T03:44:04.844Z,99558.34
2022-07-30T03:46:33.477Z,99551.91
2022-07-30T03:49:01.989Z,99563.75
2022-07-30T03:51:32.955Z,99564.44
2022-07-30T03:54:02.793Z,99571.88
2022-07-30T03:56:31.326Z,99580.47
2022-07-30T03:58:59.443Z,99579.44
2022-07-30T04:01:29.098Z,99582.88
2022-07-30T04:03:57.360Z,99583.75
2022-07-30T04:06:25.410Z,99589.84
2022-07-30T04:08:53.409Z,99592.06
2022-07-30T04:11:21.574Z,99590.00
2022-07-30T04:14:09.987Z,99594.28
2022-07-30T04:16:46.181Z,99585.66
2022-07-30T04:19:20.883Z,99592.06
2022-07-30T04:21:50.826Z,99604.59
2022-07-30T04:24:21.404Z,99598.09
2022-07-30T04:26:51.418Z,99593.38
2022-07-30T04:29:24.310Z,99595.66
2022-07-30T04:31:55.550Z,99602.19
2022-07-30T04:34:23.557Z,99597.50
2022-07-30T04:36:51.470Z,99605.72
2022-07-30T04:39:19.746Z,99602.66
2022-07-30T04:41:48.773Z,99605.56
2022-07-30T04:44:19.045Z,99595.34
2022-07-30T04:46:47.552Z,99597.78
2022-07-30T04:49:20.281Z,99600.66
2022-07-30T04:51:49.466Z,99600.41
2022-07-30T04:54:17.958Z,99603.09
2022-07-30T04:56:52.433Z,99601.41
2022-07-30T04:59:24.753Z,99598.53
2022-07-30T05:01:54.658Z,99594.44
2022-07-30T05:04:25.303Z,99607.47
2022-07-30T05:06:55.160Z,99605.84
2022-07-30T05:09:24.135Z,99595.53
2022-07-30T05:11:53.606Z,99612.56
2022-07-30T05:14:22.263Z,99585.63
2022-07-30T05:16:50.880Z,99598.59
2022-07-30T05:19:19.736Z,99576.44
2022-07-30T05:21:49.207Z,99594.59
2022-07-30T05:24:17.358Z,99601.88
2022-07-30T05:26:46.029Z,99606.25
2022-07-30T05:29:19.689Z,99602.63
2022-07-30T05:31:49.045Z,99606.97
2022-07-30T05:34:17.287Z,99582.59
2022-07-30T05:36:45.775Z,99611.78
2022-07-30T05:39:16.532Z,99594.91
2022-07-30T05:41:44.647Z,99602.47
2022-07-30T05:44:12.847Z,99579.84
2022-07-30T05:46:40.994Z,99594.88
2022-07-30T05:49:09.205Z,99594.34
2022-07-30T05:51:37.287Z,99592.69
2022-07-30T05:54:05.357Z,99600.50
2022-07-30T05:56:36.037Z,99599.31
2022-07-30T05:59:04.090Z,99594.44
2022-07-30T06:01:32.237Z,99599.47
2022-07-30T06:04:00.487Z,99602.53
2022-07-30T06:06:28.487Z,99591.97
2022-07-30T06:08:56.464Z,99602.59
2022-07-30T06:11:24.552Z,99597.13
2022-07-30T06:13:53.874Z,99599.63
2022-07-30T06:16:22.171Z,99587.94
2022-07-30T06:18:50.247Z,99598.75
2022-07-30T06:21:18.547Z,99598.19
2022-07-30T06:23:46.669Z,99594.81
2022-07-30T06:26:15.122Z,99591.09
2022-07-30T06:28:43.233Z,99596.28
2022-07-30T06:31:12.666Z,99596.22
2022-07-30T06:33:40.800Z,99597.38
2022-07-30T06:36:09.018Z,99601.94
2022-07-30T06:38:42.488Z,99613.84
2022-07-30T06:41:12.825Z,99615.03
2022-07-30T06:43:40.853Z,99604.44
2022-07-30T06:46:09.005Z,99606.91
2022-07-30T06:48:38.809Z,99609.88
2022-07-30T06:51:07.090Z,99601.00
2022-07-30T06:53:42.260Z,99602.19
2022-07-30T06:56:10.935Z,99594.69
2022-07-30T06:58:39.321Z,99594.22
2022-07-30T07:01:11.480Z,99586.78
2022-07-30T07:03:41.067Z,99589.22
2022-07-30T07:06:09.421Z,99565.91
2022-07-30T07:08:37.843Z,99578.13
2022-07-30T07:11:06.016Z,99577.22
2022-07-30T07:13:34.188Z,99577.16
2022-07-30T07:16:02.506Z,99581.03
2022-07-30T07:18:30.819Z,99586.28
2022-07-30T07:21:00.201Z,99583.59
2022-07-30T07:23:41.974Z,99580.19
2022-07-30T07:26:11.523Z,99576.53
2022-07-30T07:28:41.445Z,99572.91
2022-07-30T07:31:09.921Z,99542.91
2022-07-30T07:33:39.491Z,99571.50
2022-07-30T07:36:09.176Z,99566.13
2022-07-30T07:38:37.893Z,99566.19
2022-07-30T07:41:06.538Z,99574.09
2022-07-30T07:43:34.595Z,99564.53
2022-07-30T07:46:02.763Z,99570.22
2022-07-30T07:48:30.955Z,99569.50
2022-07-30T07:51:00.586Z,99566.47
2022-07-30T07:53:30.385Z,99562.38
2022-07-30T07:55:58.857Z,99560.31
2022-07-30T07:58:26.968Z,99542.97
2022-07-30T08:00:55.795Z,99542.19
2022-07-30T08:03:24.052Z,99549.63
2022-07-30T08:05:58.192Z,99536.38
2022-07-30T08:08:37.261Z,99551.66
2022-07-30T08:11:07.077Z,99556.16
2022-07-30T08:13:52.050Z,99544.88
2022-07-30T08:16:21.002Z,99546.25
2022-07-30T08:18:49.116Z,99544.38
2022-07-30T08:21:17.386Z,99547.38
2022-07-30T08:23:46.808Z,99545.66
2022-07-30T08:26:15.002Z,99538.72
2022-07-30T08:28:45.679Z,99532.38
2022-07-30T08:31:14.066Z,99525.34
2022-07-30T08:33:42.004Z,99531.56
2022-07-30T08:36:10.474Z,99531.16
2022-07-30T08:38:39.557Z,99522.53
2022-07-30T08:41:09.298Z,99529.50
2022-07-30T08:43:38.291Z,99526.97
2022-07-30T08:46:10.160Z,99527.91
2022-07-30T08:48:38.891Z,99521.66
2022-07-30T08:51:07.638Z,99522.38
2022-07-30T08:53:36.418Z,99520.19
2022-07-30T08:56:06.189Z,99517.66
2022-07-30T08:58:36.145Z,99507.41
2022-07-30T09:01:05.301Z,99502.00
2022-07-30T09:03:33.818Z,99504.94
2022-07-30T09:06:03.425Z,99496.91
2022-07-30T09:08:32.215Z,99505.59
2022-07-30T09:11:00.831Z,99478.00
2022-07-30T09:13:31.621Z,99487.09
2022-07-30T09:16:02.784Z,99488.88
2022-07-30T09:18:32.977Z,99482.38
2022-07-30T09:21:03.124Z,99481.75
2022-07-30T09:23:31.265Z,99471.31
2022-07-30T09:26:00.631Z,99454.88
2022-07-30T09:28:33.389Z,99466.84
2022-07-30T09:31:02.830Z,99467.78
2022-07-30T09:33:36.418Z,99458.06
2022-07-30T09:36:07.000Z,99458.09
2022-07-30T09:38:47.754Z,99460.75
2022-07-30T09:41:37.800Z,99444.13
2022-07-30T09:44:06.393Z,99450.47
2022-07-30T09:46:47.722Z,99445.22
2022-07-30T09:49:17.688Z,99452.81
2022-07-30T09:51:56.250Z,99451.75
2022-07-30T09:54:51.720Z,99444.44
2022-07-30T09:57:26.470Z,99439.88
2022-07-30T09:59:57.412Z,99440.84
2022-07-30T10:02:33.972Z,99436.53
2022-07-30T10:05:14.289Z,99431.47
2022-07-30T10:07:51.157Z,99427.59
2022-07-30T10:10:25.713Z,99427.88
2022-07-30T10:12:56.311Z,99427.03
2022-07-30T10:15:26.365Z,99420.00
2022-07-30T10:17:58.097Z,99420.31
2022-07-30T10:20:27.306Z,99425.44
2022-07-30T10:22:56.250Z,99420.06
2022-07-30T10:25:28.378Z,99417.38
2022-07-30T10:27:57.224Z,99407.38
2022-07-30T10:30:28.094Z,99406.59
2022-07-30T10:33:01.581Z,99411.72
2022-07-30T10:35:34.492Z,99403.84
2022-07-30T10:38:13.671Z,99403.84
2022-07-30T10:40:49.629Z,99390.88
2022-07-30T10:43:58.216Z,99392.78
2022-07-30T10:46:44.130Z,99376.84
2022-07-30T10:49:19.038Z,99381.66
2022-07-30T10:51:49.407Z,99375.72
2022-07-30T10:54:39.784Z,99379.22
2022-07-30T10:57:15.085Z,99364.28
2022-07-30T11:00:15.254Z,99365.13
2022-07-30T11:03:14.855Z,99364.91
2022-07-30T11:05:46.185Z,99357.59
2022-07-30T11:08:36.271Z,99354.06
2022-07-30T11:11:19.167Z,99342.94
2022-07-30T11:13:55.313Z,99348.63
2022-07-30T11:16:24.696Z,99344.56
2022-07-30T11:19:27.405Z,99336.72
2022-07-30T11:22:26.289Z,99332.94
2022-07-30T11:24:55.047Z,99336.13
2022-07-30T11:27:37.511Z,99334.47
2022-07-30T11:30:08.188Z,99324.72
2022-07-30T11:32:36.899Z,99319.16
2022-07-30T11:35:23.023Z,99318.06
2022-07-30T11:38:07.013Z,99309.38
2022-07-30T11:40:37.717Z,99300.47
2022-07-30T11:43:35.261Z,99294.22
2022-07-30T11:46:10.310Z,99293.38
2022-07-30T11:48:40.723Z,99283.00
2022-07-30T11:51:08.959Z,99297.38
2022-07-30T11:53:38.843Z,99281.78
2022-07-30T11:56:09.511Z,99278.53
2022-07-30T11:58:41.939Z,99283.72
2022-07-30T12:01:14.726Z,99284.03
2022-07-30T12:03:44.278Z,99275.19
2022-07-30T12:06:18.135Z,99271.00
2022-07-30T12:08:50.666Z,99270.38
2022-07-30T12:11:20.813Z,99270.91
2022-07-30T12:13:59.571Z,99261.88
2022-07-30T12:16:28.664Z,99252.03
2022-07-30T12:18:56.883Z,99253.13
2022-07-30T12:21:26.151Z,99247.22
2022-07-30T12:24:00.604Z,99254.72
2022-07-30T12:26:30.105Z,99246.41
2022-07-30T12:28:59.442Z,99253.06
2022-07-30T12:31:27.970Z,99234.97
2022-07-30T12:33:58.892Z,99242.28
2022-07-30T12:36:32.109Z,99241.56
2022-07-30T12:39:02.493Z,99236.28
2022-07-30T12:41:43.873Z,99234.03
2022-07-30T12:44:12.047Z,99213.03
2022-07-30T12:46:42.267Z,99218.75
2022-07-30T12:49:21.476Z,99221.53
2022-07-30T12:51:59.696Z,99218.16
2022-07-30T12:54:30.065Z,99200.84
2022-07-30T12:57:00.674Z,99199.31
2022-07-30T12:59:29.991Z,99194.75
2022-07-30T13:02:00.625Z,99150.38
2022-07-30T13:04:29.282Z,99188.59
2022-07-30T13:07:08.292Z,99186.00
2022-07-30T13:09:38.475Z,99179.56
2022-07-30T13:12:07.397Z,99180.69
2022-07-30T13:14:35.857Z,99171.59
2022-07-30T13:17:04.660Z,99164.97
2022-07-30T13:19:33.016Z,99157.78
2022-07-30T13:22:01.273Z,99145.03
2022-07-30T13:24:29.514Z,99140.97
2022-07-30T13:26:58.802Z,99145.19
2022-07-30T13:29:26.809Z,99151.41
2022-07-30T13:31:54.800Z,99143.97
2022-07-30T13:34:22.806Z,99131.28
2022-07-30T13:36:50.878Z,99126.44
2022-07-30T13:39:21.359Z,99128.34
2022-07-30T13:41:49.374Z,99122.63
2022-07-30T13:44:18.755Z,99129.66
2022-07-30T13:46:46.695Z,99125.44
2022-07-30T13:49:14.695Z,99117.88
2022-07-30T13:51:43.328Z,99121.00
2022-07-30T13:54:13.908Z,99119.50
2022-07-30T13:56:42.198Z,99117.00
2022-07-30T13:59:10.800Z,99106.22
2022-07-30T14:01:40.298Z,99111.00
2022-07-30T14:04:08.939Z,99107.31
2022-07-30T14:06:36.917Z,99107.75
2022-07-30T14:09:05.185Z,99098.66
2022-07-30T14:11:33.202Z,99091.22
2022-07-30T14:14:01.291Z,99084.78
2022-07-30T14:16:44.647Z,99087.06
2022-07-30T14:19:23.146Z,99079.56
2022-07-30T14:21:53.073Z,99067.78
2022-07-30T14:24:22.221Z,99068.47
2022-07-30T14:26:57.419Z,99065.47
2022-07-30T14:29:26.180Z,99066.66
2022-07-30T14:31:54.319Z,99071.56
2022-07-30T14:34:24.222Z,99055.72
2022-07-30T14:36:52.349Z,99063.88
2022-07-30T14:39:20.956Z,99066.53
2022-07-30T14:41:52.341Z,99063.72
2022-07-30T14:44:24.390Z,99069.63
2022-07-30T14:46:53.047Z,99061.63
2022-07-30T14:49:23.957Z,99062.03
2022-07-30T14:51:52.625Z,99055.16
2022-07-30T14:54:20.988Z,99056.69
2022-07-30T14:56:49.125Z,99051.31
2022-07-30T14:59:18.007Z,99026.97
2022-07-30T15:01:47.933Z,99035.47
2022-07-30T15:04:16.065Z,99046.22
2022-07-30T15:06:45.456Z,99049.75
2022-07-30T15:09:13.469Z,99044.63
2022-07-30T15:12:07.748Z,99041.41
2022-07-30T15:14:29.587Z,99037.75
2022-07-30T15:17:03.452Z,99041.50
2022-07-30T15:19:32.133Z,99045.91
2022-07-30T15:22:02.905Z,99041.06
2022-07-30T15:24:32.000Z,99044.78
2022-07-30T15:27:00.224Z,99031.75
2022-07-30T15:29:30.188Z,99038.47
2022-07-30T15:32:00.269Z,99036.28
2022-07-30T15:34:29.927Z,99027.34
2022-07-30T15:36:58.104Z,99021.63
2022-07-30T15:39:29.521Z,99036.38
2022-07-30T15:41:58.290Z,99027.97
2022-07-30T15:44:26.383Z,99020.03
2022-07-30T15:46:57.082Z,99024.19
2022-07-30T15:49:25.092Z,99020.47
2022-07-30T15:51:53.338Z,99032.34
2022-07-30T15:54:23.209Z,99030.53
2022-07-30T15:56:54.610Z,99023.41
2022-07-30T15:59:29.902Z,99021.38
2022-07-30T16:01:58.014Z,99014.84
2022-07-30T16:04:31.845Z,99021.13
2022-07-30T16:07:00.752Z,99021.38
2022-07-30T16:09:29.011Z,99014.59
2022-07-30T16:11:58.993Z,99012.72
2022-07-30T16:14:27.777Z,99014.94
2022-07-30T16:16:56.533Z,99016.06
2022-07-30T16:19:24.518Z,99010.53
2022-07-30T16:21:52.685Z,99014.53
2022-07-30T16:24:20.723Z,99019.44
2022-07-30T16:26:48.965Z,99022.44
2022-07-30T16:29:18.989Z,99018.06
2022-07-30T16:31:47.696Z,99019.09
2022-07-30T16:34:15.729Z,99025.75
2022-07-30T16:36:44.090Z,99020.03
2022-07-30T16:39:12.174Z,99020.84
2022-07-30T16:41:41.230Z,99020.97
2022-07-30T16:44:09.455Z,99014.84
2022-07-30T16:46:38.901Z,99019.09
2022-07-30T16:49:07.517Z,99019.16
2022-07-30T16:51:35.609Z,99019.69
2022-07-30T16:54:03.780Z,99029.84
2022-07-30T16:56:32.263Z,99024.25
2022-07-30T16:59:00.306Z,99031.16
2022-07-30T17:01:28.852Z,99040.41
2022-07-30T17:03:58.871Z,99039.84
2022-07-30T17:06:27.276Z,99032.69
2022-07-30T17:08:55.703Z,99044.13
2022-07-30T17:11:47.187Z,99047.97
2022-07-30T17:14:12.493Z,99055.59
2022-07-30T17:16:40.521Z,99058.69
2022-07-30T17:19:10.090Z,99048.69
2022-07-30T17:21:39.081Z,99049.53
2022-07-30T17:24:11.451Z,99050.38
2022-07-30T17:26:41.924Z,99050.22
2022-07-30T17:29:13.909Z,99046.94
2022-07-30T17:31:44.415Z,99031.91
2022-07-30T17:34:18.268Z,99051.41
2022-07-30T17:36:52.181Z,99046.00
2022-07-30T17:40:27.183Z,99056.34
2022-07-30T17:42:09.975Z,99045.03
2022-07-30T17:44:39.275Z,99049.16
2022-07-30T17:47:12.313Z,99047.06
2022-07-30T17:49:43.789Z,99041.13
2022-07-30T17:52:11.827Z,99050.09
2022-07-30T17:54:40.036Z,99046.88
2022-07-30T17:57:08.088Z,99057.16
2022-07-30T17:59:36.071Z,99055.06
2022-07-30T18:02:05.580Z,99059.94
2022-07-30T18:04:34.990Z,99051.56
2022-07-30T18:07:04.700Z,99056.72
2022-07-30T18:09:39.269Z,99054.13
2022-07-30T18:12:09.100Z,99060.63
2022-07-30T18:14:37.420Z,99062.78
2022-07-30T18:17:05.653Z,99054.94
2022-07-30T18:19:33.776Z,99062.78
2022-07-30T18:22:02.287Z,99051.44
2022-07-30T18:24:32.677Z,99060.91
2022-07-30T18:27:00.759Z,99059.59
2022-07-30T18:29:28.851Z,99064.47
2022-07-30T18:31:56.927Z,99062.28
2022-07-30T18:34:25.094Z,99051.47
2022-07-30T18:36:53.322Z,99058.50
2022-07-30T18:39:21.458Z,99066.34
2022-07-30T18:41:53.522Z,99071.22
2022-07-30T18:44:22.202Z,99082.56
2022-07-30T18:46:50.224Z,99080.94
2022-07-30T18:49:36.212Z,99083.66
2022-07-30T18:52:07.390Z,99083.09
2022-07-30T18:54:36.401Z,99087.69
2022-07-30T18:57:11.263Z,99085.81
2022-07-30T18:59:42.990Z,99092.56
2022-07-30T19:02:13.342Z,99089.06
2022-07-30T19:04:41.435Z,99086.09
2022-07-30T19:07:09.618Z,99089.88
2022-07-30T19:09:37.632Z,99087.44
2022-07-30T19:12:07.618Z,99093.66
2022-07-30T19:14:35.713Z,99104.69
2022-07-30T19:17:03.809Z,99115.84
2022-07-30T19:19:42.325Z,99117.81
2022-07-30T19:22:10.964Z,99112.31
2022-07-30T19:24:39.230Z,99111.66
2022-07-30T19:27:13.679Z,99121.34
2022-07-30T19:29:43.506Z,99118.66
2022-07-30T19:32:12.234Z,99114.38
2022-07-30T19:34:41.062Z,99112.78
2022-07-30T19:37:09.291Z,99117.44
2022-07-30T19:39:37.338Z,99123.13
2022-07-30T19:42:29.091Z,99124.47
2022-07-30T19:44:58.766Z,99127.25
2022-07-30T19:47:29.537Z,99150.47
2022-07-30T19:50:10.254Z,99152.88
2022-07-30T19:52:39.829Z,99157.19
2022-07-30T19:55:30.502Z,99145.97
2022-07-30T19:57:58.377Z,99168.75
2022-07-30T20:00:26.359Z,99153.50
2022-07-30T20:02:54.407Z,99162.53
2022-07-30T20:05:24.844Z,99176.72
2022-07-30T20:07:53.319Z,99176.66
2022-07-30T20:10:23.932Z,99173.06
2022-07-30T20:12:52.230Z,99170.50
2022-07-30T20:15:21.872Z,99179.00
2022-07-30T20:17:49.964Z,99186.44
2022-07-30T20:20:26.341Z,99187.25
2022-07-30T20:22:54.678Z,99183.59
2022-07-30T20:25:22.758Z,99194.63
2022-07-30T20:27:51.237Z,99187.22
2022-07-30T20:30:25.020Z,99187.06
2022-07-30T20:32:54.824Z,99186.66
2022-07-30T20:35:24.060Z,99179.50
2022-07-30T20:37:55.690Z,99208.75
2022-07-30T20:40:26.649Z,99230.19
2022-07-30T20:42:55.328Z,99243.13
2022-07-30T20:45:24.512Z,99268.50
2022-07-30T20:47:56.719Z,99300.09
2022-07-30T20:50:30.739Z,99309.84
2022-07-30T20:52:59.849Z,99320.03
2022-07-30T20:55:28.147Z,99315.41
2022-07-30T20:58:06.982Z,99326.50
2022-07-30T21:00:42.228Z,99333.56
2022-07-30T21:03:21.516Z,99362.50
2022-07-30T21:05:51.247Z,99361.03
2022-07-30T21:08:24.998Z,99400.84
2022-07-30T21:10:56.277Z,99419.91
2022-07-30T21:13:26.072Z,99423.72
2022-07-30T21:16:02.954Z,99414.91
2022-07-30T21:18:33.550Z,99425.63
2022-07-30T21:21:05.625Z,99427.75
2022-07-30T21:23:34.793Z,99410.03
2022-07-30T21:26:07.092Z,99409.81
2022-07-30T21:28:38.764Z,99424.34
2022-07-30T21:31:08.818Z,99379.84
2022-07-30T21:33:39.239Z,99428.28
2022-07-30T21:36:10.294Z,99404.09
2022-07-30T21:38:41.833Z,99435.50
2022-07-30T21:41:14.092Z,99420.53
2022-07-30T21:43:43.726Z,99430.91
2022-07-30T21:46:12.228Z,99442.41
2022-07-30T21:48:43.257Z,99378.22
2022-07-30T21:51:11.706Z,99448.78
2022-07-30T21:53:44.984Z,99453.69
2022-07-30T21:56:15.831Z,99453.81
2022-07-30T21:58:44.471Z,99459.38
2022-07-30T22:01:16.851Z,99458.31
2022-07-30T22:04:03.902Z,99467.34
2022-07-30T22:06:35.089Z,99475.84
2022-07-30T22:09:10.075Z,99478.56
2022-07-30T22:11:46.984Z,99483.06
2022-07-30T22:14:15.650Z,99472.41
2022-07-30T22:16:46.124Z,99466.03
2022-07-30T22:19:17.216Z,99478.25
2022-07-30T22:21:46.452Z,99471.34
2022-07-30T22:24:28.892Z,99461.75
2022-07-30T22:27:00.075Z,99438.59
2022-07-30T22:29:34.530Z,99461.25
2022-07-30T22:32:04.125Z,99465.75
2022-07-30T22:34:33.995Z,99461.72
2022-07-30T22:37:02.051Z,99456.38
2022-07-30T22:39:31.579Z,99453.28
2022-07-30T22:42:01.590Z,99425.34
2022-07-30T22:44:29.812Z,99460.84
2022-07-30T22:46:57.886Z,99461.78
2022-07-30T22:49:50.292Z,99457.47
2022-07-30T22:52:20.331Z,99444.78
2022-07-30T22:54:53.450Z,99448.00
2022-07-30T22:57:22.786Z,99443.31
2022-07-30T22:59:59.765Z,99439.75
2022-07-30T23:02:29.055Z,99431.16
2022-07-30T23:04:57.074Z,99423.28
2022-07-30T23:07:34.150Z,99425.41
2022-07-30T23:10:17.067Z,99412.66
2022-07-30T23:12:47.709Z,99404.69
2022-07-30T23:15:16.191Z,99388.88
2022-07-30T23:17:44.522Z,99377.72
2022-07-30T23:20:15.227Z,99342.84
2022-07-30T23:22:45.005Z,99332.16
2022-07-30T23:25:14.712Z,99327.56
2022-07-30T23:27:43.226Z,99314.25
2022-07-30T23:30:12.541Z,99322.13
2022-07-30T23:32:41.045Z,99329.38
2022-07-30T23:35:11.157Z,99338.78
2022-07-30T23:37:49.024Z,99346.03
2022-07-30T23:40:19.869Z,99324.94
2022-07-30T23:42:50.177Z,99317.66
2022-07-30T23:45:18.491Z,99294.16
2022-07-30T23:47:52.865Z,99298.34
2022-07-30T23:50:32.229Z,99293.06
2022-07-30T23:53:00.705Z,99308.56
2022-07-30T23:55:30.262Z,99301.84
2022-07-30T23:57:58.950Z,99308.72
